Time;durP1;ratioP1;P1;durP2;ratioP2;P2;SDS_P1;SDS_P2;PMS_P1;PMS_P2;Temp;Humidity;BMP_temperature;BMP_pressure;BME280_temperature;BME280_humidity;BME280_pressure;Samples;Min_cycle;Max_cycle;Signal;HPM_P1;HPM_P2
2023/04/17 00:03:30;;;;;;;38.17;20.40;;;;;;;12.21;69.83;100932.72;10274135;28;20070;-65
2023/04/17 00:08:33;;;;;;;36.97;20.85;;;;;;;12.22;70.19;100927.16;10251407;28;20117;-65
2023/04/17 00:13:34;;;;;;;39.28;20.42;;;;;;;12.24;69.73;100925.13;10274540;28;20205;-62
2023/04/17 00:18:36;;;;;;;36.72;19.80;;;;;;;12.28;69.97;100928.31;10277114;28;20055;-63
2023/04/17 00:23:37;;;;;;;31.55;19.00;;;;;;;12.30;70.27;100932.53;10250121;28;20125;-63
2023/04/17 00:28:39;;;;;;;35.05;20.30;;;;;;;12.27;70.16;100923.94;10264457;28;20089;-62
2023/04/17 00:33:40;;;;;;;39.10;20.95;;;;;;;12.17;70.11;100920.59;10265779;28;20093;-64
2023/04/17 00:38:41;;;;;;;39.85;22.52;;;;;;;12.18;70.36;100912.31;10283843;28;20059;-66
2023/04/17 00:43:43;;;;;;;39.10;20.38;;;;;;;12.05;70.30;100914.75;10266553;28;20145;-64
2023/04/17 00:48:44;;;;;;;38.03;19.83;;;;;;;11.83;70.96;100916.25;10288956;28;20422;-61
2023/04/17 00:53:46;;;;;;;36.03;20.08;;;;;;;11.87;71.31;100913.06;10289492;28;20050;-61
2023/04/17 00:58:48;;;;;;;36.90;19.52;;;;;;;11.88;71.28;100913.88;10290648;28;20490;-60
2023/04/17 01:03:50;;;;;;;34.10;18.95;;;;;;;11.82;71.36;100915.41;10286382;28;20480;-61
2023/04/17 01:08:52;;;;;;;38.05;20.63;;;;;;;11.85;70.98;100914.25;10285954;28;20073;-61
2023/04/17 01:13:54;;;;;;;36.75;20.38;;;;;;;11.82;71.08;100909.19;10284931;28;20077;-62
2023/04/17 01:18:56;;;;;;;28.75;17.40;;;;;;;11.86;71.19;100905.13;10286959;28;20050;-60
2023/04/17 01:24:04;;;;;;;31.52;18.67;;;;;;;11.90;71.13;100907.34;10284923;28;20059;-62
2023/04/17 01:29:05;;;;;;;31.85;18.33;;;;;;;11.92;71.28;100909.03;10288232;28;20066;-62
2023/04/17 01:34:07;;;;;;;32.97;19.02;;;;;;;11.95;71.16;100908.66;10265975;28;20069;-61
2023/04/17 01:39:08;;;;;;;30.48;17.90;;;;;;;12.00;70.59;100911.72;10286586;28;20410;-61
2023/04/17 01:44:10;;;;;;;33.80;20.05;;;;;;;12.08;70.77;100909.00;10288879;28;20525;-61
2023/04/17 01:49:12;;;;;;;32.53;19.27;;;;;;;12.02;70.71;100913.22;10284488;28;20058;-61
2023/04/17 01:54:14;;;;;;;34.50;19.08;;;;;;;11.93;71.36;100908.00;10284394;28;20060;-60
2023/04/17 01:59:15;;;;;;;34.70;18.63;;;;;;;12.02;70.83;100909.69;10286482;28;20055;-61
2023/04/17 02:04:17;;;;;;;34.72;18.88;;;;;;;12.10;71.11;100907.81;10285388;28;20063;-61
2023/04/17 02:09:19;;;;;;;36.40;20.35;;;;;;;11.92;71.73;100912.56;10284533;28;20055;-60
2023/04/17 02:14:20;;;;;;;34.83;19.92;;;;;;;11.88;71.72;100903.94;10284246;28;20055;-60
2023/04/17 02:19:22;;;;;;;35.15;20.55;;;;;;;11.76;71.66;100899.91;10285309;28;20050;-60
2023/04/17 02:24:23;;;;;;;33.63;19.55;;;;;;;11.71;72.13;100900.44;10282061;28;20051;-61
2023/04/17 02:29:25;;;;;;;34.90;20.75;;;;;;;11.78;71.75;100905.97;10282661;28;20067;-61
2023/04/17 02:34:26;;;;;;;38.35;21.73;;;;;;;11.80;71.61;100903.13;10285227;28;20101;-60
2023/04/17 02:39:27;;;;;;;36.45;21.92;;;;;;;11.88;71.41;100912.03;10286177;28;20402;-60
2023/04/17 02:44:29;;;;;;;39.33;21.60;;;;;;;11.95;71.30;100914.94;10284262;28;20071;-60
2023/04/17 02:49:30;;;;;;;35.15;20.63;;;;;;;11.89;71.20;100911.06;10285957;28;20071;-61
2023/04/17 02:54:32;;;;;;;42.63;21.48;;;;;;;11.94;71.59;100904.31;10282364;28;20112;-60
2023/04/17 02:59:33;;;;;;;35.10;20.70;;;;;;;11.93;71.65;100911.56;10279529;28;20062;-60
2023/04/17 03:04:37;;;;;;;34.83;21.17;;;;;;;11.89;71.51;100911.06;10263096;28;20614;-60
2023/04/17 03:09:38;;;;;;;38.20;21.67;;;;;;;11.73;71.55;100907.50;10255074;28;20102;-61
2023/04/17 03:14:40;;;;;;;36.25;21.95;;;;;;;11.74;71.64;100903.81;10277700;28;20051;-61
2023/04/17 03:19:42;;;;;;;37.33;21.35;;;;;;;11.71;71.39;100913.91;10282250;28;20205;-61
2023/04/17 03:24:43;;;;;;;37.90;21.77;;;;;;;11.56;71.51;100915.59;10282109;28;20062;-60
2023/04/17 03:29:44;;;;;;;39.28;22.38;;;;;;;11.47;71.30;100908.50;10280137;28;20585;-59
2023/04/17 03:34:46;;;;;;;36.05;20.80;;;;;;;11.32;71.88;100906.50;10282215;28;20118;-62
2023/04/17 03:39:47;;;;;;;36.65;21.85;;;;;;;11.16;71.80;100917.25;10281372;28;20051;-62
2023/04/17 03:44:49;;;;;;;33.22;20.17;;;;;;;11.05;71.81;100917.56;10280733;28;20109;-61
2023/04/17 03:49:50;;;;;;;35.97;22.00;;;;;;;11.02;71.90;100925.94;10277246;28;20054;-61
2023/04/17 03:54:51;;;;;;;37.88;22.15;;;;;;;11.04;71.81;100929.34;10277132;28;20137;-60
2023/04/17 03:59:53;;;;;;;42.40;22.45;;;;;;;11.01;71.50;100918.91;10276751;28;20066;-61
2023/04/17 04:04:54;;;;;;;35.20;21.60;;;;;;;10.92;71.63;100926.13;10285502;28;20117;-60
2023/04/17 04:09:55;;;;;;;41.75;22.42;;;;;;;10.71;71.83;100924.69;10281673;28;20056;-61
2023/04/17 04:14:57;;;;;;;41.05;21.98;;;;;;;10.65;71.89;100932.56;10278602;28;20054;-61
2023/04/17 04:19:59;;;;;;;36.08;20.55;;;;;;;10.59;71.68;100936.75;10285035;28;20380;-60
2023/04/17 04:25:00;;;;;;;37.70;22.08;;;;;;;10.53;71.57;100926.66;10283353;28;20134;-62
2023/04/17 04:30:03;;;;;;;43.65;24.10;;;;;;;10.46;71.57;100936.34;10280265;28;20105;-65
2023/04/17 04:35:05;;;;;;;37.22;22.42;;;;;;;10.31;72.12;100934.28;10279969;28;20121;-65
2023/04/17 04:40:10;;;;;;;42.13;22.67;;;;;;;10.34;71.75;100941.16;10279992;28;20067;-65
2023/04/17 04:45:11;;;;;;;42.55;23.00;;;;;;;10.32;71.89;100932.41;10282636;28;20130;-65
2023/04/17 04:50:13;;;;;;;41.42;22.98;;;;;;;10.39;71.71;100944.22;10277091;28;20062;-65
2023/04/17 04:55:14;;;;;;;43.38;23.70;;;;;;;10.38;71.71;100947.06;10276247;28;20047;-65
2023/04/17 05:00:16;;;;;;;41.97;22.45;;;;;;;10.41;71.61;100947.59;10276981;28;20419;-65
2023/04/17 05:05:18;;;;;;;40.90;22.83;;;;;;;10.47;71.82;100948.81;10279073;28;20636;-65
2023/04/17 05:10:20;;;;;;;40.78;22.23;;;;;;;10.49;71.88;100955.69;10280886;28;20084;-63
2023/04/17 05:15:21;;;;;;;41.60;22.27;;;;;;;10.50;71.76;100965.47;10283930;28;20070;-63
2023/04/17 05:20:24;;;;;;;39.15;20.20;;;;;;;10.48;72.15;100962.06;10281843;28;20059;-63
2023/04/17 05:25:26;;;;;;;33.78;19.45;;;;;;;10.53;72.51;100964.28;10280347;28;20062;-63
2023/04/17 05:30:27;;;;;;;33.13;19.02;;;;;;;10.66;72.43;100964.69;10279222;28;20058;-64
2023/04/17 05:35:29;;;;;;;32.80;18.85;;;;;;;10.71;72.56;100964.19;10278143;28;20071;-64
2023/04/17 05:40:30;;;;;;;32.88;17.50;;;;;;;10.76;72.67;100969.91;10279996;28;20066;-64
2023/04/17 05:45:32;;;;;;;30.33;17.20;;;;;;;10.88;72.58;100963.25;10279460;28;20080;-64
2023/04/17 05:50:33;;;;;;;25.88;15.13;;;;;;;10.99;72.70;100966.66;10278683;28;20575;-64
2023/04/17 05:55:35;;;;;;;25.05;15.18;;;;;;;11.09;72.24;100976.25;10278268;28;20054;-63
2023/04/17 06:00:37;;;;;;;24.15;15.40;;;;;;;11.20;72.19;100971.59;10274436;28;20062;-63
2023/04/17 06:05:38;;;;;;;26.80;14.70;;;;;;;11.31;72.28;100969.44;10276325;28;20454;-64
2023/04/17 06:10:40;;;;;;;25.95;14.63;;;;;;;11.42;72.32;100980.88;10277683;28;20051;-61
2023/04/17 06:15:41;;;;;;;22.00;13.98;;;;;;;11.54;71.85;100982.22;10264588;28;20047;-60
2023/04/17 06:20:44;;;;;;;26.20;14.93;;;;;;;11.65;71.92;100983.75;10281525;28;20057;-63
2023/04/17 06:25:45;;;;;;;24.15;14.77;;;;;;;11.76;72.11;100983.41;10253664;28;20057;-60
2023/04/17 06:30:47;;;;;;;26.30;15.02;;;;;;;11.91;72.00;100994.41;10281829;28;20051;-61
2023/04/17 06:35:49;;;;;;;27.92;17.13;;;;;;;11.99;72.21;101005.19;10264344;28;20047;-62
2023/04/17 06:40:50;;;;;;;27.40;17.13;;;;;;;12.08;71.69;101000.63;10280550;28;20465;-63
2023/04/17 06:45:53;;;;;;;26.88;16.45;;;;;;;12.21;71.78;101005.50;10275214;28;20382;-63
2023/04/17 06:50:55;;;;;;;26.05;16.48;;;;;;;12.26;71.79;101005.81;10262305;28;20074;-61
2023/04/17 06:55:56;;;;;;;30.02;16.58;;;;;;;12.28;71.35;101006.47;10281249;28;20411;-61
2023/04/17 07:00:57;;;;;;;29.05;16.80;;;;;;;12.45;71.25;101013.53;10280547;28;20066;-60
2023/04/17 07:05:59;;;;;;;25.52;15.93;;;;;;;12.49;70.66;101014.88;10277785;28;20051;-63
2023/04/17 07:11:01;;;;;;;26.73;16.55;;;;;;;12.59;70.90;101006.59;10281719;28;20071;-64
2023/04/17 07:16:04;;;;;;;25.90;15.60;;;;;;;12.76;70.18;101009.25;10263185;28;20050;-62
2023/04/17 07:21:06;;;;;;;26.55;16.33;;;;;;;12.89;70.04;101010.38;10278909;28;20046;-61
2023/04/17 07:26:07;;;;;;;29.15;16.60;;;;;;;12.89;70.18;101010.38;10280076;28;20050;-61
2023/04/17 07:31:09;;;;;;;23.75;15.55;;;;;;;12.93;70.03;101016.25;10282288;28;20038;-61
2023/04/17 07:36:10;;;;;;;23.88;15.70;;;;;;;13.07;69.57;101023.63;10280509;28;20117;-62
2023/04/17 07:41:12;;;;;;;24.95;15.05;;;;;;;13.13;69.16;101030.19;10276035;28;20070;-62
2023/04/17 07:46:13;;;;;;;23.13;14.88;;;;;;;13.18;69.30;101033.19;10277991;28;20580;-62
2023/04/17 07:51:15;;;;;;;23.73;14.30;;;;;;;13.18;69.34;101027.78;10281871;28;20406;-61
2023/04/17 07:56:17;;;;;;;21.90;14.25;;;;;;;13.23;68.88;101032.63;10276281;28;20086;-63
2023/04/17 08:01:18;;;;;;;23.85;15.20;;;;;;;13.22;68.70;101033.66;10290632;28;20043;-62
2023/04/17 08:06:20;;;;;;;24.27;15.02;;;;;;;13.26;68.81;101040.41;10264935;28;20477;-65
2023/04/17 08:11:21;;;;;;;20.85;13.65;;;;;;;13.28;68.21;101041.06;10267871;28;20537;-62
2023/04/17 08:16:23;;;;;;;25.13;13.25;;;;;;;13.33;68.14;101054.06;10295968;28;20080;-64
2023/04/17 08:21:25;;;;;;;23.88;13.38;;;;;;;13.38;67.94;101059.78;10305449;28;20069;-66
2023/04/17 08:26:27;;;;;;;21.33;13.20;;;;;;;13.39;67.97;101058.75;10304133;28;20058;-66
2023/04/17 08:31:29;;;;;;;25.80;14.13;;;;;;;13.56;67.37;101054.09;10300791;28;20050;-66
2023/04/17 08:36:31;;;;;;;25.55;13.68;;;;;;;13.68;66.95;101060.78;10301003;28;20663;-67
2023/04/17 08:41:38;;;;;;;22.60;14.02;;;;;;;13.77;67.05;101059.72;10301023;28;20058;-67
2023/04/17 08:46:40;;;;;;;22.33;14.15;;;;;;;13.96;66.48;101060.25;10297816;28;20099;-66
2023/04/17 08:51:41;;;;;;;24.48;14.15;;;;;;;14.11;66.15;101057.59;10320559;28;20138;-66
2023/04/17 08:56:43;;;;;;;20.15;12.80;;;;;;;14.22;65.92;101065.28;10314385;28;20055;-67
2023/04/17 09:02:03;;;;;;;19.02;11.98;;;;;;;14.15;65.62;101058.91;10292523;28;20043;-66
2023/04/17 09:07:06;;;;;;;21.73;12.40;;;;;;;13.91;65.94;101066.19;10283514;28;20047;-66
2023/04/17 09:12:09;;;;;;;19.60;12.43;;;;;;;13.89;65.20;101054.72;10283849;28;20484;-66
2023/04/17 09:17:10;;;;;;;19.30;12.27;;;;;;;13.86;64.98;101065.88;10286853;28;20051;-66
2023/04/17 09:22:20;;;;;;;18.40;12.75;;;;;;;13.85;64.86;101069.63;10296961;28;20046;-63
2023/04/17 09:27:27;;;;;;;19.90;12.68;;;;;;;13.95;64.64;101064.81;10305880;28;20058;-63
2023/04/17 09:32:30;;;;;;;18.70;11.87;;;;;;;14.22;64.22;101058.00;10273235;28;20315;-65
2023/04/17 09:37:52;;;;;;;18.40;11.90;;;;;;;14.42;63.53;101062.91;10291828;28;20291;-65
2023/04/17 09:43:02;;;;;;;16.63;10.98;;;;;;;14.44;62.79;101064.41;10289837;28;20138;-65
2023/04/17 09:48:09;;;;;;;17.25;9.45;;;;;;;14.54;62.27;101064.13;10279119;28;20085;-65
2023/04/17 09:53:10;;;;;;;15.73;9.33;;;;;;;14.88;61.37;101063.63;10263654;28;20044;-66
2023/04/17 09:58:12;;;;;;;16.58;9.93;;;;;;;15.14;60.70;101062.28;10276786;28;20043;-65
2023/04/17 10:03:14;;;;;;;11.88;7.45;;;;;;;15.25;60.15;101066.41;10274849;28;20455;-65
2023/04/17 10:08:17;;;;;;;8.50;6.88;;;;;;;15.40;59.00;101064.53;10303694;28;20047;-66
2023/04/17 10:13:25;;;;;;;9.75;7.20;;;;;;;15.57;58.24;101067.81;10318388;23;20071;-66
2023/04/17 10:18:27;;;;;;;12.48;6.55;;;;;;;15.53;57.91;101071.13;10235456;29;20043;-65
2023/04/17 10:23:33;;;;;;;8.05;6.43;;;;;;;15.72;57.42;101058.78;10234399;28;20117;-65
2023/04/17 10:28:48;;;;;;;9.05;6.45;;;;;;;15.50;57.25;101066.94;10179388;29;20056;-65
2023/04/17 10:33:51;;;;;;;10.50;6.40;;;;;;;15.45;57.13;101061.22;10153739;29;20070;-66
2023/04/17 10:39:14;;;;;;;10.73;6.63;;;;;;;15.37;57.08;101059.47;10145797;29;20492;-65
2023/04/17 10:44:17;;;;;;;9.52;6.90;;;;;;;15.26;57.09;101058.09;10158707;29;20119;-65
2023/04/17 10:49:21;;;;;;;9.20;5.60;;;;;;;15.42;56.59;101057.03;10140591;29;20076;-68
2023/04/17 10:54:22;;;;;;;6.10;4.60;;;;;;;15.62;56.02;101051.84;10143627;29;20044;-66
2023/04/17 10:59:28;;;;;;;3.63;2.78;;;;;;;16.03;54.74;101040.41;10140021;29;20542;-66
2023/04/17 11:04:30;;;;;;;5.78;3.50;;;;;;;16.30;54.24;101042.47;10141795;29;20138;-65
2023/04/17 11:09:32;;;;;;;6.70;3.50;;;;;;;16.24;54.45;101035.97;10140861;29;20048;-66
2023/04/17 11:14:33;;;;;;;5.22;3.35;;;;;;;16.08;53.94;101037.09;10136883;29;20061;-66
2023/04/17 11:19:35;;;;;;;4.72;3.72;;;;;;;16.07;53.80;101032.69;10140727;29;20079;-66
2023/04/17 11:24:36;;;;;;;3.67;2.70;;;;;;;16.25;53.03;101030.34;10137865;29;20499;-66
2023/04/17 11:29:38;;;;;;;4.32;3.00;;;;;;;16.17;53.06;101038.63;10143518;29;20080;-66
2023/04/17 11:34:40;;;;;;;3.83;2.50;;;;;;;16.32;52.76;101037.69;10136647;29;20123;-66
2023/04/17 11:39:42;;;;;;;4.18;2.50;;;;;;;16.45;52.52;101030.50;10137492;29;20068;-67
2023/04/17 11:44:43;;;;;;;3.63;2.92;;;;;;;16.46;52.40;101032.16;10138466;29;20091;-66
2023/04/17 11:49:45;;;;;;;2.80;2.33;;;;;;;16.41;52.49;101042.78;10142598;29;20504;-65
2023/04/17 11:54:47;;;;;;;1.73;1.10;;;;;;;16.50;51.14;101042.63;10142523;29;20992;-65
2023/04/17 11:59:48;;;;;;;4.40;1.08;;;;;;;16.59;50.63;101046.88;10140524;29;20143;-65
2023/04/17 12:04:49;;;;;;;3.50;1.15;;;;;;;16.53;50.62;101050.34;10136084;29;20116;-65
2023/04/17 12:09:57;;;;;;;1.95;1.40;;;;;;;16.41;50.70;101052.78;10141224;29;20116;-67
2023/04/17 12:14:59;;;;;;;4.20;1.55;;;;;;;16.35;50.47;101057.16;10153730;29;20559;-66
2023/04/17 12:20:02;;;;;;;2.53;1.75;;;;;;;16.37;50.46;101052.34;10144455;29;20056;-66
2023/04/17 12:25:04;;;;;;;3.85;1.40;;;;;;;16.21;50.50;101055.34;10156228;29;20059;-67
2023/04/17 12:30:06;;;;;;;5.03;1.65;;;;;;;16.17;50.49;101051.34;10151032;29;20048;-67
2023/04/17 12:35:08;;;;;;;2.17;1.88;;;;;;;16.29;50.67;101057.06;10156109;29;20079;-64
2023/04/17 12:40:09;;;;;;;2.28;1.52;;;;;;;16.33;50.61;101055.63;10162016;29;20052;-64
2023/04/17 12:45:11;;;;;;;5.03;1.50;;;;;;;16.43;50.49;101056.16;10147030;29;20452;-67
2023/04/17 12:50:13;;;;;;;4.55;1.65;;;;;;;16.67;50.10;101052.16;10147942;29;20122;-66
2023/04/17 12:55:14;;;;;;;3.13;2.35;;;;;;;16.90;49.76;101051.06;10146853;29;20059;-67
2023/04/17 13:00:16;;;;;;;2.72;1.85;;;;;;;16.90;49.91;101051.06;10148779;29;20076;-67
2023/04/17 13:05:18;;;;;;;4.00;1.73;;;;;;;16.76;50.01;101050.94;10146044;29;20056;-67
2023/04/17 13:10:19;;;;;;;4.05;2.40;;;;;;;16.58;50.27;101047.91;10144484;29;20659;-67
2023/04/17 13:15:20;;;;;;;7.18;2.05;;;;;;;16.30;50.56;101046.03;10138472;29;20087;-67
2023/04/17 13:20:22;;;;;;;3.97;2.80;;;;;;;16.00;50.79;101040.78;10144364;29;20089;-67
2023/04/17 13:25:23;;;;;;;3.90;2.28;;;;;;;15.92;50.85;101035.50;10151736;29;20055;-67
2023/04/17 13:30:25;;;;;;;3.90;2.22;;;;;;;16.01;50.74;101025.34;10141560;29;20076;-67
2023/04/17 13:35:26;;;;;;;5.90;2.10;;;;;;;16.06;50.47;101033.72;10145507;29;20464;-67
2023/04/17 13:40:28;;;;;;;7.32;2.63;;;;;;;16.08;50.26;101031.66;10142786;29;20059;-67
2023/04/17 13:45:30;;;;;;;3.95;2.10;;;;;;;16.08;50.26;101023.53;10148576;29;20106;-67
2023/04/17 13:50:31;;;;;;;3.95;2.13;;;;;;;15.92;50.42;101029.22;10145152;29;20080;-68
2023/04/17 13:55:33;;;;;;;5.03;2.30;;;;;;;15.96;50.01;101016.97;10142040;29;20067;-67
2023/04/17 14:00:34;;;;;;;4.38;1.90;;;;;;;16.09;49.46;101008.09;10143776;29;20522;-69
2023/04/17 14:05:36;;;;;;;2.90;1.80;;;;;;;16.29;49.01;101009.09;10138813;29;20127;-67
2023/04/17 14:10:37;;;;;;;4.43;2.10;;;;;;;16.36;48.68;101004.53;10140973;29;20048;-67
2023/04/17 14:15:39;;;;;;;2.53;2.28;;;;;;;16.28;48.41;101006.56;10142064;29;20059;-67
2023/04/17 14:20:41;;;;;;;3.35;2.30;;;;;;;16.30;48.38;101009.94;10137208;29;20048;-67
2023/04/17 14:25:43;;;;;;;4.68;2.45;;;;;;;16.37;48.25;101005.38;10135075;29;20080;-67
2023/04/17 14:30:44;;;;;;;6.88;2.53;;;;;;;16.33;48.17;100995.94;10134103;29;20075;-66
2023/04/17 14:35:46;;;;;;;2.72;2.15;;;;;;;16.42;48.18;100990.16;10137106;29;20052;-66
2023/04/17 14:40:48;;;;;;;3.55;2.30;;;;;;;16.58;47.79;100988.19;10138599;29;20091;-66
2023/04/17 14:45:50;;;;;;;4.07;2.30;;;;;;;16.65;47.72;100979.03;10121366;29;20090;-66
2023/04/17 14:50:51;;;;;;;3.05;2.35;;;;;;;16.68;47.31;100987.81;10135878;29;20044;-66
2023/04/17 14:55:53;;;;;;;2.75;2.10;;;;;;;17.02;46.71;100982.38;10137320;29;20147;-67
2023/04/17 15:00:54;;;;;;;3.83;2.28;;;;;;;17.44;45.66;100982.31;10127008;29;20493;-66
2023/04/17 15:05:57;;;;;;;4.60;2.00;;;;;;;17.52;45.49;100975.84;10140610;29;20060;-66
2023/04/17 15:10:59;;;;;;;4.80;2.90;;;;;;;17.48;45.56;100967.25;10146784;29;20870;-66
2023/04/17 15:16:00;;;;;;;2.83;2.10;;;;;;;17.32;45.45;100965.75;10135572;29;20056;-66
2023/04/17 15:21:02;;;;;;;3.67;1.70;;;;;;;17.35;44.97;100967.22;10134508;29;20087;-66
2023/04/17 15:26:03;;;;;;;3.30;2.00;;;;;;;17.28;45.33;100963.63;10142988;29;20552;-64
2023/04/17 15:31:05;;;;;;;2.50;1.95;;;;;;;17.32;45.08;100959.47;10140908;29;20091;-64
2023/04/17 15:36:07;;;;;;;4.10;2.03;;;;;;;17.33;44.71;100958.44;10134507;29;20064;-65
2023/04/17 15:41:08;;;;;;;3.78;2.42;;;;;;;17.31;44.35;100961.34;10132552;29;20104;-65
2023/04/17 15:46:11;;;;;;;7.03;2.47;;;;;;;17.41;43.63;100955.53;10145193;29;20119;-65
2023/04/17 15:51:13;;;;;;;5.28;2.40;;;;;;;17.67;42.95;100957.44;10142432;29;20530;-65
2023/04/17 15:56:14;;;;;;;5.82;2.45;;;;;;;17.91;42.69;100950.59;10148448;29;20186;-65
2023/04/17 16:01:16;;;;;;;3.67;2.15;;;;;;;18.02;41.40;100958.09;10150588;29;20059;-65
2023/04/17 16:06:19;;;;;;;7.82;3.25;;;;;;;17.97;41.10;100954.34;10145927;29;20060;-65
2023/04/17 16:11:20;;;;;;;5.60;2.15;;;;;;;17.90;41.19;100959.78;10148911;29;20055;-65
2023/04/17 16:16:22;;;;;;;3.78;2.30;;;;;;;17.78;41.13;100951.38;10141806;29;20511;-68
2023/04/17 16:21:23;;;;;;;6.93;3.10;;;;;;;17.62;41.49;100957.25;10138702;29;20056;-65
2023/04/17 16:26:25;;;;;;;4.57;2.40;;;;;;;17.53;41.79;100961.19;10147380;29;20076;-63
2023/04/17 16:31:27;;;;;;;4.72;2.10;;;;;;;17.30;41.79;100962.41;10146749;29;20067;-64
2023/04/17 16:36:28;;;;;;;4.65;2.33;;;;;;;17.11;41.96;100958.59;10142668;29;20464;-64
2023/04/17 16:41:31;;;;;;;3.22;2.67;;;;;;;17.09;42.08;100957.97;10146994;29;20127;-65
2023/04/17 16:46:33;;;;;;;8.15;2.95;;;;;;;16.94;42.46;100962.69;10142082;29;20135;-65
2023/04/17 16:51:54;;;;;;;3.22;2.47;;;;;;;16.85;42.54;100954.72;10149968;29;20063;-65
2023/04/17 16:56:55;;;;;;;2.88;2.25;;;;;;;16.75;42.65;100967.81;10147173;29;20523;-65
2023/04/17 17:01:57;;;;;;;5.07;2.47;;;;;;;16.77;42.92;100956.75;10144253;29;20047;-65
2023/04/17 17:07:02;;;;;;;3.70;2.45;;;;;;;16.84;42.99;100968.50;10142358;29;20048;-65
2023/04/17 17:12:03;;;;;;;5.45;2.85;;;;;;;16.79;43.68;100968.25;10143649;29;20660;-65
2023/04/17 17:17:05;;;;;;;5.43;3.05;;;;;;;16.76;43.78;100972.19;10143621;29;20065;-65
2023/04/17 17:22:06;;;;;;;5.57;2.85;;;;;;;16.70;44.52;100973.00;10150597;29;20056;-65
2023/04/17 17:27:07;;;;;;;5.15;3.25;;;;;;;16.57;44.80;100962.94;10155102;29;20063;-66
2023/04/17 17:32:09;;;;;;;8.30;3.90;;;;;;;16.52;45.15;100970.81;10146165;29;20097;-64
2023/04/17 17:37:10;;;;;;;6.07;3.58;;;;;;;16.37;45.01;100973.66;10145743;29;20088;-65
2023/04/17 17:42:12;;;;;;;11.18;5.97;;;;;;;16.31;45.31;100979.03;10142697;29;20115;-65
2023/04/17 17:47:13;;;;;;;6.03;3.95;;;;;;;16.16;45.47;100982.69;10142292;29;20079;-66
2023/04/17 17:52:15;;;;;;;5.05;3.58;;;;;;;16.03;45.75;100980.72;10143699;29;20485;-65
2023/04/17 17:57:16;;;;;;;9.25;4.70;;;;;;;15.85;46.15;100983.06;10142398;29;20163;-66
2023/04/17 18:02:17;;;;;;;9.13;4.93;;;;;;;15.78;46.41;100984.91;10142309;29;20715;-66
2023/04/17 18:07:19;;;;;;;6.85;5.03;;;;;;;15.74;46.59;100989.00;10146197;29;20578;-65
2023/04/17 18:12:21;;;;;;;8.07;5.03;;;;;;;15.63;46.56;100988.47;10144287;29;20127;-63
2023/04/17 18:17:22;;;;;;;11.07;4.68;;;;;;;15.56;46.75;100992.13;10138915;29;20501;-63
2023/04/17 18:22:23;;;;;;;11.38;5.38;;;;;;;15.49;47.13;100994.78;10145069;29;20112;-65
2023/04/17 18:27:25;;;;;;;9.60;5.05;;;;;;;15.39;47.58;100994.25;10140129;29;20068;-65
2023/04/17 18:32:26;;;;;;;9.73;4.80;;;;;;;15.35;47.66;100999.22;10140886;29;20056;-64
2023/04/17 18:37:28;;;;;;;13.80;5.93;;;;;;;15.26;47.82;101005.78;10145115;29;20048;-59
2023/04/17 18:42:29;;;;;;;8.95;5.30;;;;;;;15.12;48.62;101012.91;10176418;29;20187;-62
2023/04/17 18:47:31;;;;;;;7.43;4.78;;;;;;;14.98;48.51;101014.59;10166071;29;20048;-63
2023/04/17 18:52:37;;;;;;;7.82;4.78;;;;;;;14.87;48.82;101017.81;10178896;29;20048;-63
2023/04/17 18:57:38;;;;;;;10.05;5.55;;;;;;;14.86;48.86;101024.22;10187388;29;20048;-63
2023/04/17 19:02:39;;;;;;;7.20;5.65;;;;;;;14.75;49.39;101027.41;10185099;29;20055;-64
2023/04/17 19:07:41;;;;;;;6.25;4.53;;;;;;;14.71;49.56;101031.50;10169106;29;20550;-62
2023/04/17 19:12:43;;;;;;;7.82;5.72;;;;;;;14.59;49.94;101034.69;10165513;29;20048;-63
2023/04/17 19:17:44;;;;;;;8.77;5.35;;;;;;;14.45;50.10;101025.50;10184787;29;20052;-62
2023/04/17 19:22:46;;;;;;;12.32;4.82;;;;;;;14.42;50.20;101038.56;10178467;29;20147;-63
2023/04/17 19:27:47;;;;;;;10.15;5.43;;;;;;;14.35;50.22;101033.03;10171754;29;20080;-63
2023/04/17 19:32:48;;;;;;;9.48;5.13;;;;;;;14.27;50.52;101031.25;10177966;29;20048;-63
2023/04/17 19:37:50;;;;;;;8.35;4.82;;;;;;;14.15;50.43;101027.31;10183583;29;20062;-62
2023/04/17 19:42:52;;;;;;;9.13;4.75;;;;;;;14.11;50.86;101036.81;10174376;29;20045;-64
2023/04/17 19:47:56;;;;;;;7.95;5.07;;;;;;;14.06;50.52;101033.81;10173070;29;20068;-63
2023/04/17 19:52:57;;;;;;;8.50;5.03;;;;;;;14.03;50.67;101036.88;10166606;29;20056;-62
2023/04/17 19:57:59;;;;;;;11.57;5.07;;;;;;;13.93;50.59;101034.41;10175972;29;20060;-62
2023/04/17 20:03:00;;;;;;;11.52;5.38;;;;;;;13.79;50.60;101040.63;10175010;29;20052;-63
2023/04/17 20:08:02;;;;;;;8.25;5.18;;;;;;;13.72;50.77;101037.78;10173813;29;20132;-63
2023/04/17 20:13:03;;;;;;;8.20;5.18;;;;;;;13.65;50.52;101037.66;10170806;29;20390;-62
2023/04/17 20:18:07;;;;;;;7.10;4.93;;;;;;;13.53;51.01;101036.41;10175086;29;20059;-63
2023/04/17 20:23:08;;;;;;;8.30;5.32;;;;;;;13.41;50.98;101032.44;10179505;29;20048;-63
2023/04/17 20:28:10;;;;;;;13.15;5.47;;;;;;;13.29;51.24;101040.06;10168481;29;20056;-62
2023/04/17 20:33:11;;;;;;;10.00;6.03;;;;;;;13.10;51.96;101039.44;10173900;29;20060;-63
2023/04/17 20:38:13;;;;;;;10.05;5.80;;;;;;;13.05;52.08;101038.28;10168632;29;20052;-64
2023/04/17 20:43:15;;;;;;;14.38;7.47;;;;;;;13.01;52.12;101036.97;10178664;29;20040;-63
2023/04/17 20:48:17;;;;;;;9.23;6.10;;;;;;;12.89;51.90;101031.09;10185483;29;20052;-62
2023/04/17 20:53:19;;;;;;;11.32;5.40;;;;;;;12.87;51.44;101025.91;10178397;29;20062;-63
2023/04/17 20:58:23;;;;;;;12.05;5.57;;;;;;;12.84;51.52;101028.94;10182602;29;20128;-63
2023/04/17 21:03:24;;;;;;;8.00;5.68;;;;;;;12.76;51.67;101026.28;10178726;29;20472;-61
2023/04/17 21:08:26;;;;;;;8.75;5.88;;;;;;;12.74;51.77;101028.31;10175858;29;20079;-61
2023/04/17 21:13:29;;;;;;;6.93;4.75;;;;;;;12.69;52.02;101031.50;10180422;29;20461;-63
2023/04/17 21:18:30;;;;;;;8.70;5.45;;;;;;;12.69;52.42;101031.50;10172841;29;20112;-62
2023/04/17 21:23:32;;;;;;;9.40;6.03;;;;;;;12.63;52.26;101031.38;10178044;29;20107;-61
2023/04/17 21:28:35;;;;;;;12.38;6.07;;;;;;;12.53;52.36;101036.13;10174491;29;20586;-62
2023/04/17 21:33:37;;;;;;;9.70;5.57;;;;;;;12.41;52.33;101027.53;10170699;29;20057;-62
2023/04/17 21:38:38;;;;;;;11.75;6.30;;;;;;;12.35;52.58;101034.44;10174117;29;20074;-62
2023/04/17 21:43:40;;;;;;;12.15;6.15;;;;;;;12.30;52.24;101029.59;10179862;29;20064;-61
2023/04/17 21:48:41;;;;;;;9.88;6.22;;;;;;;12.29;52.56;101035.13;10174574;29;20049;-61
2023/04/17 21:53:42;;;;;;;12.18;5.10;;;;;;;12.21;52.50;101032.47;10176409;29;20057;-62
2023/04/17 21:58:44;;;;;;;9.20;4.82;;;;;;;12.14;52.45;101037.66;10175017;29;20052;-61
2023/04/17 22:03:45;;;;;;;8.70;5.32;;;;;;;12.12;52.44;101034.28;10176647;29;20055;-62
2023/04/17 22:08:47;;;;;;;7.05;5.20;;;;;;;12.13;52.16;101030.59;10173058;29;20085;-62
2023/04/17 22:13:48;;;;;;;11.25;6.47;;;;;;;12.05;52.49;101034.13;10167837;29;20052;-62
2023/04/17 22:18:49;;;;;;;13.05;6.60;;;;;;;11.96;52.50;101034.31;10175565;29;20059;-62
2023/04/17 22:23:51;;;;;;;10.95;6.57;;;;;;;11.91;52.79;101037.50;10171286;29;20121;-61
2023/04/17 22:28:52;;;;;;;9.10;5.88;;;;;;;11.86;53.25;101037.13;10175345;29;20060;-61
2023/04/17 22:33:53;;;;;;;10.07;5.78;;;;;;;11.74;52.91;101039.31;10174737;29;20059;-62
2023/04/17 22:38:55;;;;;;;11.38;6.90;;;;;;;11.63;53.34;101042.31;10172248;29;20093;-61
2023/04/17 22:43:56;;;;;;;11.52;6.50;;;;;;;11.49;53.66;101041.97;10173670;29;20047;-62
2023/04/17 22:48:57;;;;;;;12.20;7.15;;;;;;;11.41;53.73;101033.84;10180091;29;20061;-61
2023/04/17 22:53:59;;;;;;;11.70;6.68;;;;;;;11.33;53.74;101039.22;10169015;29;20063;-62